createdAt,value
2023-10-28T00:00:33.165Z,2.10
2023-10-28T00:05:34.949Z,2.00
2023-10-28T00:10:37.860Z,2.40
2023-10-28T00:15:40.249Z,2.27
2023-10-28T00:20:42.526Z,2.40
2023-10-28T00:25:44.447Z,2.30
2023-10-28T00:30:46.266Z,2.73
2023-10-28T00:35:49.010Z,2.77
2023-10-28T00:40:51.349Z,2.40
2023-10-28T00:45:55.305Z,2.60
2023-10-28T00:50:59.124Z,2.70
2023-10-28T00:56:02.789Z,2.00
2023-10-28T01:01:05.189Z,2.10
2023-10-28T01:06:10.516Z,2.43
2023-10-28T01:11:14.106Z,2.20
2023-10-28T01:16:15.898Z,2.60
2023-10-28T01:21:18.235Z,2.30
2023-10-28T01:26:20.244Z,2.77
2023-10-28T01:31:23.059Z,2.17
2023-10-28T01:36:24.931Z,3.10
2023-10-28T01:41:28.034Z,3.30
2023-10-28T01:46:30.690Z,2.73
2023-10-28T01:51:32.613Z,3.03
2023-10-28T01:56:34.387Z,3.10
2023-10-28T02:01:36.772Z,3.30
2023-10-28T02:06:39.215Z,2.87
2023-10-28T02:11:41.070Z,2.57
2023-10-28T02:16:42.924Z,2.93
2023-10-28T02:21:45.311Z,3.10
2023-10-28T02:26:47.235Z,2.70
2023-10-28T02:31:49.979Z,2.40
2023-10-28T02:36:51.996Z,2.27
2023-10-28T02:41:56.813Z,2.93
2023-10-28T02:46:59.577Z,2.67
2023-10-28T02:52:02.356Z,2.90
2023-10-28T02:57:04.559Z,2.87
2023-10-28T03:02:06.449Z,3.13
2023-10-28T03:07:09.024Z,3.07
2023-10-28T03:12:15.995Z,3.57
2023-10-28T03:17:18.815Z,3.10
2023-10-28T03:22:20.743Z,2.70
2023-10-28T03:27:22.711Z,3.23
2023-10-28T03:32:24.543Z,3.07
2023-10-28T03:37:26.710Z,2.50
2023-10-28T03:42:28.571Z,2.73
2023-10-28T03:47:30.564Z,2.60
2023-10-28T03:52:33.960Z,3.20
2023-10-28T03:57:36.164Z,2.53
2023-10-28T04:02:38.268Z,2.57
2023-10-28T04:07:40.047Z,2.67
2023-10-28T04:12:41.884Z,2.40
2023-10-28T04:17:43.656Z,2.53
2023-10-28T04:22:45.536Z,2.70
2023-10-28T04:27:47.422Z,2.40
2023-10-28T04:32:49.460Z,2.30
2023-10-28T04:37:51.256Z,2.70
2023-10-28T04:42:53.485Z,2.63
2023-10-28T04:47:55.467Z,2.53
2023-10-28T04:52:57.387Z,2.47
2023-10-28T04:57:59.164Z,2.50
2023-10-28T05:03:02.019Z,2.70
2023-10-28T05:08:04.086Z,2.47
2023-10-28T05:13:05.924Z,2.30
2023-10-28T05:18:07.707Z,2.47
2023-10-28T05:23:09.591Z,2.80
2023-10-28T05:28:11.765Z,2.40
2023-10-28T05:33:15.061Z,2.27
2023-10-28T05:38:16.943Z,2.37
2023-10-28T05:43:19.562Z,2.23
2023-10-28T05:48:21.341Z,2.63
2023-10-28T05:53:23.884Z,2.67
2023-10-28T05:58:25.662Z,2.90
2023-10-28T06:03:30.122Z,2.77
2023-10-28T06:08:32.039Z,2.60
2023-10-28T06:13:33.862Z,2.47
2023-10-28T06:18:35.644Z,2.43
2023-10-28T06:23:37.400Z,2.10
2023-10-28T06:28:39.885Z,2.57
2023-10-28T06:33:41.958Z,2.40
2023-10-28T06:38:43.723Z,2.63
2023-10-28T06:43:45.534Z,2.33
2023-10-28T06:48:47.727Z,1.97
2023-10-28T06:53:49.663Z,2.20
2023-10-28T06:58:52.524Z,2.10
2023-10-28T07:03:54.504Z,2.20
2023-10-28T07:08:56.538Z,1.77
2023-10-28T07:13:58.786Z,2.90
2023-10-28T07:19:01.048Z,2.53
2023-10-28T07:24:03.007Z,2.15
2023-10-28T07:29:07.489Z,2.33
2023-10-28T07:34:09.423Z,2.37
2023-10-28T07:39:11.339Z,2.03
2023-10-28T07:44:13.148Z,3.05
2023-10-28T07:49:15.219Z,1.60
2023-10-28T07:54:17.004Z,2.20
2023-10-28T07:59:18.937Z,2.35
2023-10-28T08:04:21.024Z,1.65
2023-10-28T08:09:23.889Z,1.55
2023-10-28T08:14:27.082Z,2.30
2023-10-28T08:19:30.534Z,1.70
2023-10-28T08:24:32.353Z,2.20
2023-10-28T08:29:35.025Z,1.45
2023-10-28T08:34:37.247Z,1.10
2023-10-28T08:39:38.978Z,1.75
2023-10-28T08:44:41.973Z,1.52
2023-10-28T08:49:48.224Z,1.67
2023-10-28T08:54:52.494Z,1.58
2023-10-28T08:59:54.432Z,1.40
2023-10-28T09:04:56.627Z,1.73
2023-10-28T09:09:59.795Z,1.63
2023-10-28T09:15:01.940Z,2.05
2023-10-28T09:20:10.592Z,1.77
2023-10-28T09:25:15.722Z,2.15
2023-10-28T09:30:19.190Z,2.33
2023-10-28T09:35:22.091Z,2.22
2023-10-28T09:40:24.736Z,2.20
2023-10-28T09:45:26.700Z,2.10
2023-10-28T09:50:31.561Z,2.88
2023-10-28T09:55:36.988Z,2.50
2023-10-28T10:00:39.117Z,2.67
2023-10-28T10:05:44.475Z,2.55
2023-10-28T10:10:47.031Z,3.35
2023-10-28T10:15:55.845Z,2.70
2023-10-28T10:21:13.601Z,2.95
2023-10-28T10:26:30.715Z,2.92
2023-10-28T10:31:34.566Z,3.10
2023-10-28T10:36:46.990Z,3.20
2023-10-28T10:41:54.199Z,3.20
2023-10-28T10:46:59.501Z,2.53
2023-10-28T10:52:02.542Z,2.70
2023-10-28T10:57:04.729Z,3.47
2023-10-28T11:02:07.874Z,3.08
2023-10-28T11:07:10.994Z,3.00
2023-10-28T11:12:12.815Z,2.60
2023-10-28T11:17:14.848Z,2.88
2023-10-28T11:22:17.392Z,3.15
2023-10-28T11:27:21.078Z,3.50
2023-10-28T11:32:22.911Z,3.38
2023-10-28T11:37:24.873Z,3.05
2023-10-28T11:42:28.561Z,2.28
2023-10-28T11:47:31.228Z,2.63
2023-10-28T11:52:33.143Z,3.00
2023-10-28T11:57:35.033Z,3.03
2023-10-28T12:02:36.875Z,2.60
2023-10-28T12:07:38.779Z,3.05
2023-10-28T12:12:40.576Z,3.17
2023-10-28T12:17:44.026Z,3.00
2023-10-28T12:22:46.341Z,2.35
2023-10-28T12:27:48.098Z,2.40
2023-10-28T12:32:51.830Z,2.40
2023-10-28T12:37:53.691Z,2.40
2023-10-28T12:42:55.580Z,2.83
2023-10-28T12:47:57.865Z,2.65
2023-10-28T12:52:59.907Z,4.05
2023-10-28T12:58:02.168Z,3.05
2023-10-28T13:03:05.337Z,2.50
2023-10-28T13:08:07.347Z,3.20
2023-10-28T13:13:09.138Z,2.72
2023-10-28T13:18:12.588Z,2.47
2023-10-28T13:23:14.592Z,2.78
2023-10-28T13:28:16.360Z,2.75
2023-10-28T13:33:18.249Z,3.28
2023-10-28T13:38:20.261Z,2.40
2023-10-28T13:43:22.074Z,2.30
2023-10-28T13:48:24.022Z,2.00
2023-10-28T13:53:26.087Z,2.33
2023-10-28T13:58:29.816Z,2.22
2023-10-28T14:03:31.815Z,2.38
2023-10-28T14:08:33.906Z,2.40
2023-10-28T14:13:41.906Z,2.88
2023-10-28T14:18:50.325Z,2.05
2023-10-28T14:23:52.818Z,1.80
2023-10-28T14:28:54.604Z,2.20
2023-10-28T14:33:58.763Z,2.10
2023-10-28T14:39:00.856Z,2.50
2023-10-28T14:44:03.514Z,1.80
2023-10-28T14:49:05.532Z,2.53
2023-10-28T14:54:07.380Z,2.55
2023-10-28T14:59:10.048Z,2.03
2023-10-28T15:04:12.121Z,2.38
2023-10-28T15:09:14.028Z,1.50
2023-10-28T15:14:15.886Z,1.85
2023-10-28T15:19:17.720Z,1.55
2023-10-28T15:24:19.642Z,1.70
2023-10-28T15:29:21.440Z,1.27
2023-10-28T15:34:23.413Z,1.70
2023-10-28T15:39:25.250Z,1.65
2023-10-28T15:44:27.058Z,1.33
2023-10-28T15:49:29.108Z,1.30
2023-10-28T15:54:31.626Z,1.20
2023-10-28T15:59:33.461Z,1.38
2023-10-28T16:04:35.349Z,1.70
2023-10-28T16:09:40.102Z,2.10
2023-10-28T16:14:41.967Z,1.30
2023-10-28T16:19:43.872Z,1.60
2023-10-28T16:24:45.914Z,1.50
2023-10-28T16:29:47.896Z,2.00
2023-10-28T16:34:49.710Z,1.67
2023-10-28T16:39:53.221Z,1.23
2023-10-28T16:44:56.199Z,1.83
2023-10-28T16:49:57.972Z,1.38
2023-10-28T16:54:59.724Z,1.88
2023-10-28T17:00:01.831Z,1.77
2023-10-28T17:05:05.876Z,1.80
2023-10-28T17:10:08.744Z,1.50
2023-10-28T17:15:10.761Z,1.73
2023-10-28T17:20:12.643Z,1.60
2023-10-28T17:25:15.813Z,1.42
2023-10-28T17:30:17.577Z,1.95
2023-10-28T17:35:19.996Z,1.10
2023-10-28T17:40:23.225Z,1.30
2023-10-28T17:45:25.661Z,2.55
2023-10-28T17:50:27.469Z,1.30
2023-10-28T17:55:29.806Z,1.30
2023-10-28T18:00:32.415Z,1.60
2023-10-28T18:05:34.417Z,1.27
2023-10-28T18:10:36.332Z,1.88
2023-10-28T18:15:39.907Z,1.70
2023-10-28T18:20:43.946Z,1.50
2023-10-28T18:25:46.145Z,1.50
2023-10-28T18:30:48.098Z,1.38
2023-10-28T18:35:49.913Z,1.58
2023-10-28T18:40:51.698Z,1.33
2023-10-28T18:45:54.375Z,1.70
2023-10-28T18:50:56.181Z,1.40
2023-10-28T18:56:03.705Z,1.65
2023-10-28T19:01:07.096Z,1.50
2023-10-28T19:06:09.901Z,1.25
2023-10-28T19:11:11.766Z,1.20
2023-10-28T19:16:13.561Z,1.40
2023-10-28T19:21:15.401Z,1.63
2023-10-28T19:26:17.378Z,1.20
2023-10-28T19:31:19.355Z,1.23
2023-10-28T19:36:21.146Z,1.23
2023-10-28T19:41:26.561Z,1.00
2023-10-28T19:46:29.212Z,1.13
2023-10-28T19:51:31.033Z,1.40
2023-10-28T19:56:32.823Z,1.65
2023-10-28T20:01:34.650Z,1.90
2023-10-28T20:06:36.560Z,2.10
2023-10-28T20:11:38.336Z,2.13
2023-10-28T20:16:40.244Z,2.03
2023-10-28T20:21:42.009Z,1.60
2023-10-28T20:26:44.487Z,1.80
2023-10-28T20:31:46.312Z,1.83
2023-10-28T20:36:48.093Z,1.45
2023-10-28T20:41:49.947Z,1.60
2023-10-28T20:46:51.800Z,1.40
2023-10-28T20:51:54.010Z,1.50
2023-10-28T20:56:57.122Z,1.35
2023-10-28T21:01:58.939Z,1.13
2023-10-28T21:07:01.945Z,1.80
2023-10-28T21:12:04.177Z,1.40
2023-10-28T21:17:09.178Z,1.38
2023-10-28T21:22:10.929Z,1.58
2023-10-28T21:27:12.678Z,1.20
2023-10-28T21:32:14.532Z,1.30
2023-10-28T21:37:16.407Z,1.30
2023-10-28T21:42:19.633Z,1.30
2023-10-28T21:47:21.523Z,1.40
2023-10-28T21:52:23.349Z,1.52
2023-10-28T21:57:26.483Z,1.48
2023-10-28T22:02:30.272Z,1.45
2023-10-28T22:07:32.446Z,1.58
2023-10-28T22:12:34.209Z,1.30
2023-10-28T22:17:36.160Z,2.00
2023-10-28T22:22:38.686Z,1.20
2023-10-28T22:27:40.662Z,1.25
2023-10-28T22:32:42.550Z,0.88
2023-10-28T22:37:44.417Z,0.90
2023-10-28T22:42:47.006Z,1.08
2023-10-28T22:47:48.880Z,1.33
2023-10-28T22:52:50.716Z,1.30
2023-10-28T22:57:53.053Z,1.15
2023-10-28T23:02:55.178Z,0.85
2023-10-28T23:07:58.375Z,0.90
2023-10-28T23:13:00.567Z,0.90
2023-10-28T23:18:02.617Z,0.90
2023-10-28T23:23:04.474Z,0.98
2023-10-28T23:28:06.385Z,0.90
2023-10-28T23:33:08.480Z,0.93
2023-10-28T23:38:10.355Z,0.88
2023-10-28T23:43:12.116Z,0.80
2023-10-28T23:48:14.764Z,0.70
2023-10-28T23:53:16.863Z,1.05
2023-10-28T23:58:18.681Z,0.98
